sensor_id;sensor_type;location;lat;lon;timestamp;P1;durP1;ratioP1;P2;durP2;ratioP2
57101;SDS011;42982;54.558;18.508;2023-01-01T00:00:04;5.45;;;2.70;;
57101;SDS011;42982;54.558;18.508;2023-01-01T00:01:14;7.38;;;3.58;;
57101;SDS011;42982;54.558;18.508;2023-01-01T00:02:16;14.88;;;8.40;;
57101;SDS011;42982;54.558;18.508;2023-01-01T00:03:19;25.83;;;14.98;;
57101;SDS011;42982;54.558;18.508;2023-01-01T00:04:21;12.00;;;6.35;;
57101;SDS011;42982;54.558;18.508;2023-01-01T00:05:26;5.38;;;2.97;;
57101;SDS011;42982;54.558;18.508;2023-01-01T00:06:29;4.18;;;2.30;;
57101;SDS011;42982;54.558;18.508;2023-01-01T00:07:31;3.85;;;2.10;;
57101;SDS011;42982;54.558;18.508;2023-01-01T00:08:35;4.90;;;2.40;;
57101;SDS011;42982;54.558;18.508;2023-01-01T00:09:37;8.13;;;3.15;;
57101;SDS011;42982;54.558;18.508;2023-01-01T00:11:01;6.07;;;2.60;;
57101;SDS011;42982;54.558;18.508;2023-01-01T00:12:07;5.25;;;2.70;;
57101;SDS011;42982;54.558;18.508;2023-01-01T00:13:12;5.60;;;2.72;;
57101;SDS011;42982;54.558;18.508;2023-01-01T00:14:14;9.73;;;2.78;;
57101;SDS011;42982;54.558;18.508;2023-01-01T00:15:21;4.47;;;2.67;;
57101;SDS011;42982;54.558;18.508;2023-01-01T00:16:23;5.85;;;2.72;;
57101;SDS011;42982;54.558;18.508;2023-01-01T00:17:28;6.93;;;2.78;;
57101;SDS011;42982;54.558;18.508;2023-01-01T00:18:33;6.93;;;2.90;;
57101;SDS011;42982;54.558;18.508;2023-01-01T00:19:36;5.88;;;2.70;;
57101;SDS011;42982;54.558;18.508;2023-01-01T00:20:41;6.30;;;2.78;;
57101;SDS011;42982;54.558;18.508;2023-01-01T00:21:46;4.07;;;2.60;;
57101;SDS011;42982;54.558;18.508;2023-01-01T00:22:49;5.32;;;2.55;;
57101;SDS011;42982;54.558;18.508;2023-01-01T00:23:52;5.07;;;2.40;;
57101;SDS011;42982;54.558;18.508;2023-01-01T00:24:54;6.72;;;3.20;;
57101;SDS011;42982;54.558;18.508;2023-01-01T00:25:56;4.22;;;2.50;;
57101;SDS011;42982;54.558;18.508;2023-01-01T00:26:58;5.63;;;2.92;;
57101;SDS011;42982;54.558;18.508;2023-01-01T00:28:03;6.38;;;2.60;;
57101;SDS011;42982;54.558;18.508;2023-01-01T00:29:07;4.45;;;2.30;;
57101;SDS011;42982;54.558;18.508;2023-01-01T00:30:10;6.50;;;2.58;;
57101;SDS011;42982;54.558;18.508;2023-01-01T00:31:22;14.45;;;8.10;;
57101;SDS011;42982;54.558;18.508;2023-01-01T00:32:27;6.97;;;3.55;;
57101;SDS011;42982;54.558;18.508;2023-01-01T00:33:30;8.07;;;3.35;;
57101;SDS011;42982;54.558;18.508;2023-01-01T00:34:32;5.78;;;3.22;;
57101;SDS011;42982;54.558;18.508;2023-01-01T00:35:36;4.88;;;2.42;;
57101;SDS011;42982;54.558;18.508;2023-01-01T00:36:40;4.30;;;2.40;;
57101;SDS011;42982;54.558;18.508;2023-01-01T00:37:43;5.85;;;2.63;;
57101;SDS011;42982;54.558;18.508;2023-01-01T00:38:46;4.85;;;2.22;;
57101;SDS011;42982;54.558;18.508;2023-01-01T00:39:48;5.05;;;2.25;;
57101;SDS011;42982;54.558;18.508;2023-01-01T00:40:53;4.38;;;2.00;;
57101;SDS011;42982;54.558;18.508;2023-01-01T00:41:57;4.47;;;2.25;;
57101;SDS011;42982;54.558;18.508;2023-01-01T00:42:59;4.32;;;2.35;;
57101;SDS011;42982;54.558;18.508;2023-01-01T00:44:02;8.10;;;2.50;;
57101;SDS011;42982;54.558;18.508;2023-01-01T00:45:09;4.95;;;2.30;;
57101;SDS011;42982;54.558;18.508;2023-01-01T00:46:13;4.25;;;2.28;;
57101;SDS011;42982;54.558;18.508;2023-01-01T00:47:15;5.10;;;2.28;;
57101;SDS011;42982;54.558;18.508;2023-01-01T00:48:24;3.60;;;2.08;;
57101;SDS011;42982;54.558;18.508;2023-01-01T00:49:27;5.35;;;2.50;;
57101;SDS011;42982;54.558;18.508;2023-01-01T00:50:29;4.40;;;2.30;;
57101;SDS011;42982;54.558;18.508;2023-01-01T00:51:31;4.15;;;2.20;;
57101;SDS011;42982;54.558;18.508;2023-01-01T00:52:33;3.60;;;2.10;;
57101;SDS011;42982;54.558;18.508;2023-01-01T00:53:36;4.93;;;2.38;;
57101;SDS011;42982;54.558;18.508;2023-01-01T00:54:38;6.60;;;3.83;;
57101;SDS011;42982;54.558;18.508;2023-01-01T00:55:42;6.45;;;4.03;;
57101;SDS011;42982;54.558;18.508;2023-01-01T00:56:45;7.88;;;4.80;;
57101;SDS011;42982;54.558;18.508;2023-01-01T00:57:50;11.40;;;6.25;;
57101;SDS011;42982;54.558;18.508;2023-01-01T00:58:53;7.80;;;4.53;;
57101;SDS011;42982;54.558;18.508;2023-01-01T00:59:59;11.70;;;4.35;;
57101;SDS011;42982;54.558;18.508;2023-01-01T01:01:01;5.10;;;2.88;;
57101;SDS011;42982;54.558;18.508;2023-01-01T01:02:08;5.53;;;2.75;;
57101;SDS011;42982;54.558;18.508;2023-01-01T01:03:14;6.20;;;3.13;;
57101;SDS011;42982;54.558;18.508;2023-01-01T01:04:28;5.63;;;2.78;;
57101;SDS011;42982;54.558;18.508;2023-01-01T01:05:32;6.88;;;3.45;;
57101;SDS011;42982;54.558;18.508;2023-01-01T01:06:37;5.88;;;3.08;;
57101;SDS011;42982;54.558;18.508;2023-01-01T01:07:43;8.02;;;3.55;;
57101;SDS011;42982;54.558;18.508;2023-01-01T01:08:45;6.18;;;3.53;;
57101;SDS011;42982;54.558;18.508;2023-01-01T01:09:47;8.32;;;4.00;;
57101;SDS011;42982;54.558;18.508;2023-01-01T01:10:50;8.13;;;4.40;;
57101;SDS011;42982;54.558;18.508;2023-01-01T01:11:52;8.45;;;4.10;;
57101;SDS011;42982;54.558;18.508;2023-01-01T01:12:54;7.70;;;3.88;;
57101;SDS011;42982;54.558;18.508;2023-01-01T01:13:59;8.38;;;4.10;;
57101;SDS011;42982;54.558;18.508;2023-01-01T01:15:03;7.55;;;4.40;;
57101;SDS011;42982;54.558;18.508;2023-01-01T01:16:17;9.07;;;4.57;;
57101;SDS011;42982;54.558;18.508;2023-01-01T01:17:18;9.27;;;4.28;;
57101;SDS011;42982;54.558;18.508;2023-01-01T01:18:21;9.35;;;4.57;;
57101;SDS011;42982;54.558;18.508;2023-01-01T01:19:23;11.27;;;4.55;;
57101;SDS011;42982;54.558;18.508;2023-01-01T01:20:29;10.93;;;4.82;;
57101;SDS011;42982;54.558;18.508;2023-01-01T01:21:32;8.75;;;4.40;;
57101;SDS011;42982;54.558;18.508;2023-01-01T01:22:35;10.13;;;4.22;;
57101;SDS011;42982;54.558;18.508;2023-01-01T01:23:40;9.65;;;4.75;;
57101;SDS011;42982;54.558;18.508;2023-01-01T01:24:43;9.63;;;4.28;;
57101;SDS011;42982;54.558;18.508;2023-01-01T01:25:45;11.18;;;5.43;;
57101;SDS011;42982;54.558;18.508;2023-01-01T01:26:48;10.43;;;5.60;;
57101;SDS011;42982;54.558;18.508;2023-01-01T01:27:51;9.25;;;5.25;;
57101;SDS011;42982;54.558;18.508;2023-01-01T01:28:56;10.30;;;4.20;;
57101;SDS011;42982;54.558;18.508;2023-01-01T01:30:02;6.45;;;4.00;;
57101;SDS011;42982;54.558;18.508;2023-01-01T01:31:04;6.68;;;4.07;;
57101;SDS011;42982;54.558;18.508;2023-01-01T01:32:08;7.22;;;3.92;;
57101;SDS011;42982;54.558;18.508;2023-01-01T01:33:11;11.88;;;4.75;;
57101;SDS011;42982;54.558;18.508;2023-01-01T01:34:16;9.68;;;4.50;;
57101;SDS011;42982;54.558;18.508;2023-01-01T01:35:18;11.02;;;4.35;;
57101;SDS011;42982;54.558;18.508;2023-01-01T01:36:21;8.52;;;4.35;;
57101;SDS011;42982;54.558;18.508;2023-01-01T01:37:24;6.78;;;3.70;;
57101;SDS011;42982;54.558;18.508;2023-01-01T01:38:26;6.95;;;3.72;;
57101;SDS011;42982;54.558;18.508;2023-01-01T01:39:28;12.50;;;4.03;;
57101;SDS011;42982;54.558;18.508;2023-01-01T01:40:32;9.68;;;4.70;;
57101;SDS011;42982;54.558;18.508;2023-01-01T01:41:39;8.57;;;3.70;;
57101;SDS011;42982;54.558;18.508;2023-01-01T01:42:43;7.28;;;3.88;;
57101;SDS011;42982;54.558;18.508;2023-01-01T01:43:50;9.55;;;4.05;;
57101;SDS011;42982;54.558;18.508;2023-01-01T01:45:05;10.15;;;4.40;;
57101;SDS011;42982;54.558;18.508;2023-01-01T01:48:44;9.32;;;2.90;;
57101;SDS011;42982;54.558;18.508;2023-01-01T01:49:53;4.57;;;2.22;;
57101;SDS011;42982;54.558;18.508;2023-01-01T01:51:20;5.95;;;2.03;;
57101;SDS011;42982;54.558;18.508;2023-01-01T01:52:28;5.85;;;2.10;;
57101;SDS011;42982;54.558;18.508;2023-01-01T01:53:36;6.22;;;2.17;;
57101;SDS011;42982;54.558;18.508;2023-01-01T01:54:44;4.10;;;1.73;;
57101;SDS011;42982;54.558;18.508;2023-01-01T01:55:47;3.42;;;2.45;;
57101;SDS011;42982;54.558;18.508;2023-01-01T01:56:58;3.78;;;1.73;;
57101;SDS011;42982;54.558;18.508;2023-01-01T01:58:04;4.05;;;1.75;;
57101;SDS011;42982;54.558;18.508;2023-01-01T01:59:09;6.13;;;1.90;;
57101;SDS011;42982;54.558;18.508;2023-01-01T02:00:14;3.90;;;1.77;;
57101;SDS011;42982;54.558;18.508;2023-01-01T02:01:19;4.30;;;1.70;;
57101;SDS011;42982;54.558;18.508;2023-01-01T02:04:51;5.30;;;1.70;;
57101;SDS011;42982;54.558;18.508;2023-01-01T02:05:54;3.72;;;1.40;;
57101;SDS011;42982;54.558;18.508;2023-01-01T02:06:57;3.92;;;1.75;;
57101;SDS011;42982;54.558;18.508;2023-01-01T02:08:02;4.13;;;1.70;;
57101;SDS011;42982;54.558;18.508;2023-01-01T02:09:05;5.95;;;1.88;;
57101;SDS011;42982;54.558;18.508;2023-01-01T02:10:08;3.10;;;1.70;;
57101;SDS011;42982;54.558;18.508;2023-01-01T02:11:11;2.65;;;1.85;;
57101;SDS011;42982;54.558;18.508;2023-01-01T02:12:13;3.65;;;1.70;;
57101;SDS011;42982;54.558;18.508;2023-01-01T02:13:17;4.72;;;1.88;;
57101;SDS011;42982;54.558;18.508;2023-01-01T02:14:20;5.85;;;1.60;;
57101;SDS011;42982;54.558;18.508;2023-01-01T02:15:22;4.10;;;1.55;;
57101;SDS011;42982;54.558;18.508;2023-01-01T02:16:32;4.75;;;1.70;;
57101;SDS011;42982;54.558;18.508;2023-01-01T02:18:05;4.55;;;1.75;;
57101;SDS011;42982;54.558;18.508;2023-01-01T02:21:32;4.70;;;1.70;;
57101;SDS011;42982;54.558;18.508;2023-01-01T02:22:45;3.95;;;1.75;;
57101;SDS011;42982;54.558;18.508;2023-01-01T02:25:12;4.78;;;1.65;;
57101;SDS011;42982;54.558;18.508;2023-01-01T02:26:39;3.70;;;1.88;;
57101;SDS011;42982;54.558;18.508;2023-01-01T02:28:59;3.20;;;1.40;;
57101;SDS011;42982;54.558;18.508;2023-01-01T02:30:06;4.70;;;1.55;;
57101;SDS011;42982;54.558;18.508;2023-01-01T02:31:13;3.22;;;1.40;;
57101;SDS011;42982;54.558;18.508;2023-01-01T02:32:21;4.88;;;1.73;;
57101;SDS011;42982;54.558;18.508;2023-01-01T02:33:26;3.35;;;1.63;;
57101;SDS011;42982;54.558;18.508;2023-01-01T02:34:31;4.57;;;1.77;;
57101;SDS011;42982;54.558;18.508;2023-01-01T02:35:38;4.38;;;1.70;;
57101;SDS011;42982;54.558;18.508;2023-01-01T02:36:44;3.25;;;1.67;;
57101;SDS011;42982;54.558;18.508;2023-01-01T02:37:54;4.10;;;1.65;;
57101;SDS011;42982;54.558;18.508;2023-01-01T02:39:00;3.38;;;1.83;;
57101;SDS011;42982;54.558;18.508;2023-01-01T02:40:10;6.80;;;1.50;;
57101;SDS011;42982;54.558;18.508;2023-01-01T02:41:13;3.63;;;1.48;;
57101;SDS011;42982;54.558;18.508;2023-01-01T02:42:22;3.92;;;1.42;;
57101;SDS011;42982;54.558;18.508;2023-01-01T02:43:27;4.85;;;1.85;;
57101;SDS011;42982;54.558;18.508;2023-01-01T02:44:29;3.40;;;1.65;;
57101;SDS011;42982;54.558;18.508;2023-01-01T02:45:35;3.80;;;1.48;;
57101;SDS011;42982;54.558;18.508;2023-01-01T02:46:36;6.38;;;2.47;;
57101;SDS011;42982;54.558;18.508;2023-01-01T02:47:39;5.18;;;1.92;;
57101;SDS011;42982;54.558;18.508;2023-01-01T02:49:59;3.75;;;2.10;;
57101;SDS011;42982;54.558;18.508;2023-01-01T02:51:02;5.10;;;1.80;;
57101;SDS011;42982;54.558;18.508;2023-01-01T02:52:20;3.70;;;1.50;;
57101;SDS011;42982;54.558;18.508;2023-01-01T02:53:26;4.35;;;1.73;;
57101;SDS011;42982;54.558;18.508;2023-01-01T02:54:46;4.47;;;1.52;;
57101;SDS011;42982;54.558;18.508;2023-01-01T02:55:59;4.78;;;1.73;;
57101;SDS011;42982;54.558;18.508;2023-01-01T02:57:07;6.93;;;2.03;;
57101;SDS011;42982;54.558;18.508;2023-01-01T02:58:34;5.15;;;1.75;;
57101;SDS011;42982;54.558;18.508;2023-01-01T03:00:12;4.72;;;2.05;;
57101;SDS011;42982;54.558;18.508;2023-01-01T03:01:54;6.13;;;2.05;;
57101;SDS011;42982;54.558;18.508;2023-01-01T03:08:18;5.85;;;1.77;;
57101;SDS011;42982;54.558;18.508;2023-01-01T03:11:49;4.60;;;2.10;;
57101;SDS011;42982;54.558;18.508;2023-01-01T03:14:29;5.20;;;1.80;;
57101;SDS011;42982;54.558;18.508;2023-01-01T03:15:47;4.82;;;1.88;;
57101;SDS011;42982;54.558;18.508;2023-01-01T03:17:02;9.02;;;2.20;;
57101;SDS011;42982;54.558;18.508;2023-01-01T03:18:32;6.75;;;2.15;;
57101;SDS011;42982;54.558;18.508;2023-01-01T03:19:48;6.43;;;2.10;;
57101;SDS011;42982;54.558;18.508;2023-01-01T03:20:56;4.45;;;1.90;;
57101;SDS011;42982;54.558;18.508;2023-01-01T03:23:09;11.50;;;2.10;;
57101;SDS011;42982;54.558;18.508;2023-01-01T03:24:45;11.35;;;2.03;;
57101;SDS011;42982;54.558;18.508;2023-01-01T03:25:56;5.70;;;1.77;;
57101;SDS011;42982;54.558;18.508;2023-01-01T03:27:05;3.63;;;1.90;;
57101;SDS011;42982;54.558;18.508;2023-01-01T03:28:24;2.35;;;1.70;;
57101;SDS011;42982;54.558;18.508;2023-01-01T03:29:34;6.65;;;2.55;;
57101;SDS011;42982;54.558;18.508;2023-01-01T03:30:42;5.75;;;1.70;;
57101;SDS011;42982;54.558;18.508;2023-01-01T03:31:50;6.45;;;2.03;;
57101;SDS011;42982;54.558;18.508;2023-01-01T03:33:01;4.57;;;1.80;;
57101;SDS011;42982;54.558;18.508;2023-01-01T03:34:10;4.38;;;2.05;;
57101;SDS011;42982;54.558;18.508;2023-01-01T03:36:21;4.97;;;2.15;;
57101;SDS011;42982;54.558;18.508;2023-01-01T03:37:52;5.60;;;2.10;;
57101;SDS011;42982;54.558;18.508;2023-01-01T03:38:59;6.60;;;2.00;;
57101;SDS011;42982;54.558;18.508;2023-01-01T03:40:09;3.85;;;2.08;;
57101;SDS011;42982;54.558;18.508;2023-01-01T03:41:28;4.38;;;1.85;;
57101;SDS011;42982;54.558;18.508;2023-01-01T03:42:42;8.50;;;2.17;;
57101;SDS011;42982;54.558;18.508;2023-01-01T03:44:01;3.95;;;1.58;;
57101;SDS011;42982;54.558;18.508;2023-01-01T03:45:47;5.97;;;1.70;;
57101;SDS011;42982;54.558;18.508;2023-01-01T03:46:51;7.97;;;2.33;;
57101;SDS011;42982;54.558;18.508;2023-01-01T03:47:54;7.32;;;2.00;;
57101;SDS011;42982;54.558;18.508;2023-01-01T03:48:57;6.13;;;1.88;;
57101;SDS011;42982;54.558;18.508;2023-01-01T03:50:05;11.80;;;2.50;;
57101;SDS011;42982;54.558;18.508;2023-01-01T03:51:08;3.20;;;1.50;;
57101;SDS011;42982;54.558;18.508;2023-01-01T03:59:01;6.53;;;2.20;;
57101;SDS011;42982;54.558;18.508;2023-01-01T04:00:16;6.22;;;2.13;;
57101;SDS011;42982;54.558;18.508;2023-01-01T04:01:22;3.25;;;1.92;;
57101;SDS011;42982;54.558;18.508;2023-01-01T04:02:28;8.07;;;2.10;;
57101;SDS011;42982;54.558;18.508;2023-01-01T04:03:34;4.00;;;1.90;;
57101;SDS011;42982;54.558;18.508;2023-01-01T04:04:38;5.72;;;2.65;;
57101;SDS011;42982;54.558;18.508;2023-01-01T04:05:43;3.47;;;1.65;;
57101;SDS011;42982;54.558;18.508;2023-01-01T04:06:50;6.68;;;2.10;;
57101;SDS011;42982;54.558;18.508;2023-01-01T04:07:55;8.25;;;2.10;;
57101;SDS011;42982;54.558;18.508;2023-01-01T04:09:00;6.38;;;2.15;;
57101;SDS011;42982;54.558;18.508;2023-01-01T04:10:05;3.70;;;1.88;;
57101;SDS011;42982;54.558;18.508;2023-01-01T04:11:20;4.43;;;2.13;;
57101;SDS011;42982;54.558;18.508;2023-01-01T04:12:44;4.68;;;1.70;;
57101;SDS011;42982;54.558;18.508;2023-01-01T04:13:52;5.15;;;2.13;;
57101;SDS011;42982;54.558;18.508;2023-01-01T04:14:55;6.90;;;1.90;;
57101;SDS011;42982;54.558;18.508;2023-01-01T04:15:59;8.80;;;1.85;;
57101;SDS011;42982;54.558;18.508;2023-01-01T04:17:04;6.45;;;1.75;;
57101;SDS011;42982;54.558;18.508;2023-01-01T04:18:07;4.60;;;1.73;;
57101;SDS011;42982;54.558;18.508;2023-01-01T04:19:10;7.32;;;2.25;;
57101;SDS011;42982;54.558;18.508;2023-01-01T04:20:12;4.13;;;1.80;;
57101;SDS011;42982;54.558;18.508;2023-01-01T04:21:17;6.97;;;2.65;;
57101;SDS011;42982;54.558;18.508;2023-01-01T04:22:22;7.75;;;2.15;;
57101;SDS011;42982;54.558;18.508;2023-01-01T04:23:24;5.28;;;1.95;;
57101;SDS011;42982;54.558;18.508;2023-01-01T04:24:26;5.85;;;1.67;;
57101;SDS011;42982;54.558;18.508;2023-01-01T04:25:31;6.40;;;1.90;;
57101;SDS011;42982;54.558;18.508;2023-01-01T04:26:34;8.20;;;1.70;;
57101;SDS011;42982;54.558;18.508;2023-01-01T04:27:41;5.53;;;1.88;;
57101;SDS011;42982;54.558;18.508;2023-01-01T04:28:46;14.00;;;2.28;;
57101;SDS011;42982;54.558;18.508;2023-01-01T04:29:48;6.38;;;2.30;;
57101;SDS011;42982;54.558;18.508;2023-01-01T04:30:53;6.20;;;2.28;;
57101;SDS011;42982;54.558;18.508;2023-01-01T04:31:58;8.45;;;1.77;;
57101;SDS011;42982;54.558;18.508;2023-01-01T04:33:02;4.47;;;1.80;;
57101;SDS011;42982;54.558;18.508;2023-01-01T04:34:04;5.13;;;1.80;;
57101;SDS011;42982;54.558;18.508;2023-01-01T04:35:06;4.60;;;1.60;;
57101;SDS011;42982;54.558;18.508;2023-01-01T04:36:09;5.32;;;1.50;;
57101;SDS011;42982;54.558;18.508;2023-01-01T04:37:14;4.57;;;1.80;;
57101;SDS011;42982;54.558;18.508;2023-01-01T04:38:19;8.50;;;2.10;;
57101;SDS011;42982;54.558;18.508;2023-01-01T04:39:21;9.50;;;2.17;;
57101;SDS011;42982;54.558;18.508;2023-01-01T04:40:25;5.38;;;2.28;;
57101;SDS011;42982;54.558;18.508;2023-01-01T04:41:27;5.60;;;1.73;;
57101;SDS011;42982;54.558;18.508;2023-01-01T04:42:29;13.77;;;2.10;;
57101;SDS011;42982;54.558;18.508;2023-01-01T04:43:31;3.78;;;1.55;;
57101;SDS011;42982;54.558;18.508;2023-01-01T04:44:34;7.35;;;2.00;;
57101;SDS011;42982;54.558;18.508;2023-01-01T04:45:36;10.80;;;1.73;;
57101;SDS011;42982;54.558;18.508;2023-01-01T04:46:41;6.93;;;1.98;;
57101;SDS011;42982;54.558;18.508;2023-01-01T04:47:45;5.70;;;2.10;;
57101;SDS011;42982;54.558;18.508;2023-01-01T04:48:47;6.03;;;1.75;;
57101;SDS011;42982;54.558;18.508;2023-01-01T04:49:52;8.48;;;1.90;;
57101;SDS011;42982;54.558;18.508;2023-01-01T04:50:59;6.43;;;1.95;;
57101;SDS011;42982;54.558;18.508;2023-01-01T04:52:07;5.78;;;1.63;;
57101;SDS011;42982;54.558;18.508;2023-01-01T04:53:10;6.20;;;2.00;;
57101;SDS011;42982;54.558;18.508;2023-01-01T04:54:15;5.32;;;2.00;;
57101;SDS011;42982;54.558;18.508;2023-01-01T04:55:17;12.50;;;2.40;;
57101;SDS011;42982;54.558;18.508;2023-01-01T04:56:21;5.60;;;1.98;;
57101;SDS011;42982;54.558;18.508;2023-01-01T04:57:28;5.40;;;1.90;;
57101;SDS011;42982;54.558;18.508;2023-01-01T04:58:33;5.97;;;1.85;;
57101;SDS011;42982;54.558;18.508;2023-01-01T04:59:38;3.47;;;1.77;;
57101;SDS011;42982;54.558;18.508;2023-01-01T05:00:41;5.53;;;1.60;;
57101;SDS011;42982;54.558;18.508;2023-01-01T05:01:43;11.57;;;2.05;;
57101;SDS011;42982;54.558;18.508;2023-01-01T05:02:45;2.28;;;1.45;;
57101;SDS011;42982;54.558;18.508;2023-01-01T05:03:48;5.05;;;1.50;;
57101;SDS011;42982;54.558;18.508;2023-01-01T05:04:50;13.38;;;1.90;;
57101;SDS011;42982;54.558;18.508;2023-01-01T05:06:02;3.83;;;2.08;;
57101;SDS011;42982;54.558;18.508;2023-01-01T05:07:25;3.75;;;2.03;;
57101;SDS011;42982;54.558;18.508;2023-01-01T05:08:32;5.80;;;1.90;;
57101;SDS011;42982;54.558;18.508;2023-01-01T05:09:52;5.03;;;1.88;;
57101;SDS011;42982;54.558;18.508;2023-01-01T05:10:59;8.82;;;2.00;;
57101;SDS011;42982;54.558;18.508;2023-01-01T05:12:05;4.03;;;1.90;;
57101;SDS011;42982;54.558;18.508;2023-01-01T05:13:11;4.93;;;1.58;;
57101;SDS011;42982;54.558;18.508;2023-01-01T05:14:16;8.55;;;1.98;;
57101;SDS011;42982;54.558;18.508;2023-01-01T05:15:19;5.10;;;1.90;;
57101;SDS011;42982;54.558;18.508;2023-01-01T05:16:26;5.10;;;1.77;;
57101;SDS011;42982;54.558;18.508;2023-01-01T05:17:47;7.68;;;2.30;;
57101;SDS011;42982;54.558;18.508;2023-01-01T05:18:52;4.55;;;2.15;;
57101;SDS011;42982;54.558;18.508;2023-01-01T05:19:54;6.65;;;1.73;;
57101;SDS011;42982;54.558;18.508;2023-01-01T05:21:01;6.13;;;1.83;;
57101;SDS011;42982;54.558;18.508;2023-01-01T05:22:08;5.20;;;2.00;;
57101;SDS011;42982;54.558;18.508;2023-01-01T05:23:10;7.35;;;2.08;;
57101;SDS011;42982;54.558;18.508;2023-01-01T05:24:13;6.97;;;1.83;;
57101;SDS011;42982;54.558;18.508;2023-01-01T05:25:18;9.68;;;1.88;;
57101;SDS011;42982;54.558;18.508;2023-01-01T05:26:24;8.50;;;2.13;;
57101;SDS011;42982;54.558;18.508;2023-01-01T05:27:30;6.03;;;2.20;;
57101;SDS011;42982;54.558;18.508;2023-01-01T05:28:32;5.88;;;1.80;;
57101;SDS011;42982;54.558;18.508;2023-01-01T05:29:35;5.90;;;1.70;;
57101;SDS011;42982;54.558;18.508;2023-01-01T05:30:38;3.67;;;1.60;;
57101;SDS011;42982;54.558;18.508;2023-01-01T05:31:43;8.00;;;1.90;;
57101;SDS011;42982;54.558;18.508;2023-01-01T05:32:45;10.27;;;1.92;;
57101;SDS011;42982;54.558;18.508;2023-01-01T05:33:48;6.43;;;2.00;;
57101;SDS011;42982;54.558;18.508;2023-01-01T05:34:54;3.70;;;1.80;;
57101;SDS011;42982;54.558;18.508;2023-01-01T05:35:59;8.18;;;2.17;;
57101;SDS011;42982;54.558;18.508;2023-01-01T05:37:01;7.88;;;2.03;;
57101;SDS011;42982;54.558;18.508;2023-01-01T05:38:04;7.68;;;2.45;;
57101;SDS011;42982;54.558;18.508;2023-01-01T05:39:10;4.22;;;1.77;;
57101;SDS011;42982;54.558;18.508;2023-01-01T05:40:12;6.70;;;1.80;;
57101;SDS011;42982;54.558;18.508;2023-01-01T05:41:16;3.08;;;1.75;;
57101;SDS011;42982;54.558;18.508;2023-01-01T05:42:22;9.90;;;1.85;;
57101;SDS011;42982;54.558;18.508;2023-01-01T05:43:27;3.88;;;1.95;;
57101;SDS011;42982;54.558;18.508;2023-01-01T05:44:29;6.38;;;2.00;;
57101;SDS011;42982;54.558;18.508;2023-01-01T05:45:34;14.98;;;2.45;;
57101;SDS011;42982;54.558;18.508;2023-01-01T05:46:36;4.78;;;2.03;;
57101;SDS011;42982;54.558;18.508;2023-01-01T05:47:38;6.97;;;1.80;;
57101;SDS011;42982;54.558;18.508;2023-01-01T05:48:44;6.50;;;2.47;;
57101;SDS011;42982;54.558;18.508;2023-01-01T05:49:47;7.43;;;2.13;;
57101;SDS011;42982;54.558;18.508;2023-01-01T05:50:51;6.07;;;1.95;;
57101;SDS011;42982;54.558;18.508;2023-01-01T05:51:57;4.93;;;1.73;;
57101;SDS011;42982;54.558;18.508;2023-01-01T05:52:59;7.95;;;2.00;;
57101;SDS011;42982;54.558;18.508;2023-01-01T05:54:02;11.65;;;2.30;;
57101;SDS011;42982;54.558;18.508;2023-01-01T05:55:05;7.18;;;2.22;;
57101;SDS011;42982;54.558;18.508;2023-01-01T05:56:12;6.55;;;2.38;;
57101;SDS011;42982;54.558;18.508;2023-01-01T05:57:18;9.88;;;2.10;;
57101;SDS011;42982;54.558;18.508;2023-01-01T05:58:20;6.28;;;2.05;;
57101;SDS011;42982;54.558;18.508;2023-01-01T05:59:27;6.45;;;2.22;;
57101;SDS011;42982;54.558;18.508;2023-01-01T06:00:30;4.43;;;2.17;;
57101;SDS011;42982;54.558;18.508;2023-01-01T06:01:34;5.63;;;2.17;;
57101;SDS011;42982;54.558;18.508;2023-01-01T06:02:40;6.63;;;2.22;;
57101;SDS011;42982;54.558;18.508;2023-01-01T06:03:43;4.78;;;1.90;;
57101;SDS011;42982;54.558;18.508;2023-01-01T06:04:49;7.20;;;2.92;;
57101;SDS011;42982;54.558;18.508;2023-01-01T06:05:51;7.88;;;1.88;;
57101;SDS011;42982;54.558;18.508;2023-01-01T06:06:56;11.15;;;2.15;;
57101;SDS011;42982;54.558;18.508;2023-01-01T06:07:58;7.20;;;2.28;;
57101;SDS011;42982;54.558;18.508;2023-01-01T06:09:04;5.32;;;2.38;;
57101;SDS011;42982;54.558;18.508;2023-01-01T06:10:05;8.32;;;2.60;;
57101;SDS011;42982;54.558;18.508;2023-01-01T06:11:10;4.93;;;2.30;;
57101;SDS011;42982;54.558;18.508;2023-01-01T06:12:12;4.90;;;2.50;;
57101;SDS011;42982;54.558;18.508;2023-01-01T06:13:17;7.80;;;3.10;;
57101;SDS011;42982;54.558;18.508;2023-01-01T06:14:21;9.80;;;2.53;;
57101;SDS011;42982;54.558;18.508;2023-01-01T06:15:24;11.40;;;2.42;;
57101;SDS011;42982;54.558;18.508;2023-01-01T06:16:29;7.22;;;2.20;;
57101;SDS011;42982;54.558;18.508;2023-01-01T06:17:32;5.65;;;2.33;;
57101;SDS011;42982;54.558;18.508;2023-01-01T06:18:34;8.90;;;2.58;;
57101;SDS011;42982;54.558;18.508;2023-01-01T06:19:39;6.28;;;2.63;;
57101;SDS011;42982;54.558;18.508;2023-01-01T06:20:41;8.27;;;2.75;;
57101;SDS011;42982;54.558;18.508;2023-01-01T06:21:46;7.15;;;2.17;;
57101;SDS011;42982;54.558;18.508;2023-01-01T06:22:50;5.60;;;2.33;;
57101;SDS011;42982;54.558;18.508;2023-01-01T06:23:54;7.90;;;2.97;;
57101;SDS011;42982;54.558;18.508;2023-01-01T06:24:56;13.63;;;4.25;;
57101;SDS011;42982;54.558;18.508;2023-01-01T06:26:06;12.52;;;2.67;;
57101;SDS011;42982;54.558;18.508;2023-01-01T06:27:12;8.43;;;2.60;;
57101;SDS011;42982;54.558;18.508;2023-01-01T06:28:17;5.30;;;2.60;;
57101;SDS011;42982;54.558;18.508;2023-01-01T06:29:22;6.97;;;3.20;;
57101;SDS011;42982;54.558;18.508;2023-01-01T06:30:26;10.65;;;2.97;;
57101;SDS011;42982;54.558;18.508;2023-01-01T06:31:29;10.55;;;2.97;;
57101;SDS011;42982;54.558;18.508;2023-01-01T06:32:33;8.98;;;4.20;;
57101;SDS011;42982;54.558;18.508;2023-01-01T06:33:38;5.63;;;2.40;;
57101;SDS011;42982;54.558;18.508;2023-01-01T06:34:44;10.00;;;3.20;;
57101;SDS011;42982;54.558;18.508;2023-01-01T06:35:47;7.35;;;2.88;;
57101;SDS011;42982;54.558;18.508;2023-01-01T06:36:52;4.53;;;2.47;;
57101;SDS011;42982;54.558;18.508;2023-01-01T06:37:57;10.77;;;3.13;;
57101;SDS011;42982;54.558;18.508;2023-01-01T06:40:06;12.65;;;3.50;;
57101;SDS011;42982;54.558;18.508;2023-01-01T06:41:15;9.88;;;2.80;;
57101;SDS011;42982;54.558;18.508;2023-01-01T06:42:18;9.23;;;3.42;;
57101;SDS011;42982;54.558;18.508;2023-01-01T06:43:21;6.88;;;3.22;;
57101;SDS011;42982;54.558;18.508;2023-01-01T06:44:24;13.00;;;3.53;;
57101;SDS011;42982;54.558;18.508;2023-01-01T06:45:27;9.95;;;3.42;;
57101;SDS011;42982;54.558;18.508;2023-01-01T06:46:33;8.00;;;3.20;;
57101;SDS011;42982;54.558;18.508;2023-01-01T06:47:35;10.90;;;3.47;;
57101;SDS011;42982;54.558;18.508;2023-01-01T06:48:45;13.07;;;3.75;;
57101;SDS011;42982;54.558;18.508;2023-01-01T06:49:51;7.93;;;3.42;;
57101;SDS011;42982;54.558;18.508;2023-01-01T06:50:53;8.85;;;3.50;;
57101;SDS011;42982;54.558;18.508;2023-01-01T06:51:56;10.20;;;3.45;;
57101;SDS011;42982;54.558;18.508;2023-01-01T06:53:01;8.07;;;3.40;;
57101;SDS011;42982;54.558;18.508;2023-01-01T06:54:03;11.77;;;4.38;;
57101;SDS011;42982;54.558;18.508;2023-01-01T06:55:06;20.92;;;4.10;;
57101;SDS011;42982;54.558;18.508;2023-01-01T06:56:16;9.70;;;3.75;;
57101;SDS011;42982;54.558;18.508;2023-01-01T06:57:20;8.73;;;3.47;;
57101;SDS011;42982;54.558;18.508;2023-01-01T06:58:22;11.55;;;4.25;;
57101;SDS011;42982;54.558;18.508;2023-01-01T06:59:27;10.02;;;3.97;;
57101;SDS011;42982;54.558;18.508;2023-01-01T07:00:29;12.85;;;3.60;;
57101;SDS011;42982;54.558;18.508;2023-01-01T07:01:32;13.48;;;4.47;;